MSC Susanna — 3ECU4 — position and weather

sailwx.info

Track history (hours):
 
Tides and Currents Weather Stations Pressure Air Temp Water Temp Dewpoint Dewpoint Depression Visibility Wind Speed Wind Dir Waves Ship Positions

MSC Susanna

Last reported at 2017-Apr-17 16:26 UTC. Time now 2017-Apr-29 01:56 UTC.
Position S 33°48' E 018°17'.
Warning: this ship's position is 11 days out of date.

Length 337 m; draft 11.4 m.

Type: Ship (hazmat cat A). MMSI: 371466000.

Date/timePositionNaut miles runAvg speedWind from/ knotsBaromVisibWave heightAir tempDewpointWater temp
2017-Apr-17 16:26S 33°48' E 018°17'716.3
2017-Apr-17 16:00S 33°51' E 018°24'4 8.3
2017-Apr-17 15:30S 33°55' E 018°27'0 0.3
2017-Apr-17 14:59S 33°55' E 018°27'0 0.0
2017-Apr-17 13:59S 33°55' E 018°27'0 0.0
2017-Apr-17 13:29S 33°55' E 018°27'0 0.0
2017-Apr-17 12:59S 33°55' E 018°27'0 0.0
2017-Apr-17 12:29S 33°55' E 018°27'0 0.0
2017-Apr-17 11:59S 33°55' E 018°27'0 0.0
2017-Apr-17 11:29S 33°55' E 018°27'0 0.0
2017-Apr-17 10:59S 33°55' E 018°27'0 0.0
2017-Apr-17 10:29S 33°55' E 018°27'0 0.0
2017-Apr-17 09:59S 33°55' E 018°27'0 0.0
2017-Apr-17 09:29S 33°55' E 018°27'0 0.0
2017-Apr-17 08:59S 33°55' E 018°27'0 0.0
2017-Apr-17 08:29S 33°55' E 018°27'0 0.0
2017-Apr-17 07:59S 33°55' E 018°27'0 0.0
2017-Apr-17 07:26S 33°55' E 018°27'0 0.0
2017-Apr-17 06:59S 33°55' E 018°27'0 0.0
2017-Apr-17 06:29S 33°55' E 018°27'0 0.0
2017-Apr-17 05:56S 33°55' E 018°27'0 0.0
2017-Apr-17 05:29S 33°55' E 018°27'0 0.0
2017-Apr-17 04:59S 33°55' E 018°27'0 0.0
2017-Apr-17 04:29S 33°55' E 018°27'0 0.1
2017-Apr-17 03:59S 33°55' E 018°27'1 2.1
2017-Apr-17 03:30S 33°54' E 018°26'3 5.5
2017-Apr-17 03:00S 33°52' E 018°23'1 2.9
2017-Apr-17 02:30S 33°52' E 018°22'2 3.7
2017-Apr-17 02:00S 33°54' E 018°20'3 6.6
2017-Apr-17 01:30S 33°56' E 018°18'1212.2
2017-Apr-17 00:29S 34°08' E 018°13'68515.2
2017-Apr-15 03:26S 30°15' E 030°54'614.3
2017-Apr-15 03:01S 30°10' E 030°58'713.9
2017-Apr-15 02:30S 30°04' E 031°01'611.8
2017-Apr-15 02:00S 29°58' E 031°04'5 9.9
2017-Apr-15 01:30S 29°54' E 031°06'3 6.3
2017-Apr-15 01:01S 29°52' E 031°03'2 3.4
2017-Apr-15 00:28S 29°53' E 031°01'0 0.0
2017-Apr-14 23:58S 29°53' E 031°01'0 0.0
2017-Apr-14 23:25S 29°53' E 031°01'0 0.0
2017-Apr-14 22:58S 29°53' E 031°01'0 0.0
2017-Apr-14 22:28S 29°53' E 031°01'0 0.0
2017-Apr-14 21:58S 29°53' E 031°01'0 0.0
2017-Apr-14 21:28S 29°53' E 031°01'0 0.0
2017-Apr-14 20:55S 29°53' E 031°01'0 0.0
2017-Apr-14 20:28S 29°53' E 031°01'0 0.0
2017-Apr-14 20:00S 29°53' E 031°01'0 0.0
2017-Apr-14 19:30S 29°53' E 031°01'0 0.0
2017-Apr-14 19:00S 29°53' E 031°01'0 0.0
2017-Apr-14 18:30S 29°53' E 031°01'0 0.0
2017-Apr-14 18:00S 29°53' E 031°01'0 0.0
2017-Apr-14 17:30S 29°53' E 031°01'0 0.0
2017-Apr-14 17:00S 29°53' E 031°01'0 0.0
2017-Apr-14 16:30S 29°53' E 031°01'0 0.0
2017-Apr-14 16:00S 29°53' E 031°01'0 0.0
2017-Apr-14 15:30S 29°53' E 031°01'0 0.0
2017-Apr-14 15:00S 29°53' E 031°01'0 0.0
2017-Apr-14 14:00S 29°53' E 031°01'0 0.0
2017-Apr-14 13:30S 29°53' E 031°01'0 0.0
2017-Apr-14 13:00S 29°53' E 031°01'0 0.0
2017-Apr-14 12:30S 29°53' E 031°01'0 0.0
2017-Apr-14 12:00S 29°53' E 031°01'0 0.0
2017-Apr-14 11:27S 29°53' E 031°01'0 0.0
2017-Apr-14 11:00S 29°53' E 031°01'0 0.0
2017-Apr-14 10:27S 29°53' E 031°01'0 0.0
2017-Apr-14 09:57S 29°53' E 031°01'0 0.0
2017-Apr-14 09:30S 29°53' E 031°01'0 0.0
2017-Apr-14 08:57S 29°53' E 031°01'0 0.0
2017-Apr-14 08:30S 29°53' E 031°01'0 0.0
2017-Apr-14 07:57S 29°53' E 031°01'0 0.0
2017-Apr-14 07:30S 29°53' E 031°01'0 0.0
2017-Apr-14 06:57S 29°53' E 031°01'0 0.0
2017-Apr-14 06:30S 29°53' E 031°01'0 0.0
2017-Apr-14 06:00S 29°53' E 031°01'0 0.0
2017-Apr-14 05:30S 29°53' E 031°01'0 0.0
2017-Apr-14 05:00S 29°53' E 031°01'0 0.0
2017-Apr-14 04:30S 29°53' E 031°01'0 0.0
2017-Apr-14 03:57S 29°53' E 031°01'0 0.0
2017-Apr-14 03:30S 29°53' E 031°01'0 0.0
2017-Apr-14 03:00S 29°53' E 031°01'0 0.0
2017-Apr-14 02:30S 29°53' E 031°01'0 0.0
2017-Apr-14 02:00S 29°53' E 031°01'0 0.0
2017-Apr-14 01:30S 29°53' E 031°01'0 0.0
2017-Apr-14 01:00S 29°53' E 031°01'0 0.0
2017-Apr-14 00:30S 29°53' E 031°01'0 0.0
2017-Apr-14 00:00S 29°53' E 031°01'0 0.0
2017-Apr-13 23:30S 29°53' E 031°01'0 0.0
2017-Apr-13 23:00S 29°53' E 031°01'0 0.0
2017-Apr-13 22:27S 29°53' E 031°01'0 0.0
2017-Apr-13 22:00S 29°53' E 031°01'0 0.0
2017-Apr-13 21:27S 29°53' E 031°01'0 0.0
2017-Apr-13 21:00S 29°53' E 031°01'0 0.0
2017-Apr-13 20:30S 29°53' E 031°01'0 0.0
2017-Apr-13 20:00S 29°53' E 031°01'0 0.0
2017-Apr-13 19:30S 29°53' E 031°01'0 0.0
2017-Apr-13 19:00S 29°53' E 031°01'0 0.0
2017-Apr-13 18:30S 29°53' E 031°01'0 0.0
2017-Apr-13 18:00S 29°53' E 031°01'0 0.0
2017-Apr-13 17:30S 29°53' E 031°01'0 0.0
2017-Apr-13 17:00S 29°53' E 031°01'0 0.0
2017-Apr-13 16:30S 29°53' E 031°01'0 0.0
2017-Apr-13 15:57S 29°53' E 031°01'0 0.0
2017-Apr-13 15:30S 29°53' E 031°01'0 0.0
2017-Apr-13 14:57S 29°53' E 031°01'0 0.0
2017-Apr-13 14:27S 29°53' E 031°01'0 0.0
2017-Apr-13 13:30S 29°53' E 031°01'0 0.1
2017-Apr-13 13:01S 29°53' E 031°01'1 1.4
2017-Apr-13 12:31S 29°52' E 031°02'4 8.2
2017-Apr-13 12:01S 29°50' E 031°06'2 4.3
2017-Apr-13 11:31S 29°49' E 031°08'3 5.1
2017-Apr-13 11:01S 29°50' E 031°11'4 8.4
2017-Apr-13 10:31S 29°51' E 031°16'1 1.4
2017-Apr-13 10:01S 29°50' E 031°16'0 0.1
2017-Apr-13 09:31S 29°50' E 031°16'0 0.3
2017-Apr-13 09:01S 29°50' E 031°16'0 0.2
2017-Apr-13 08:31S 29°50' E 031°17'0 0.2
2017-Apr-13 08:01S 29°50' E 031°17'0 0.5
2017-Apr-13 07:31S 29°50' E 031°17'0 0.7
2017-Apr-13 07:01S 29°50' E 031°17'2 3.1
2017-Apr-13 06:31S 29°48' E 031°17'3 6.5
2017-Apr-13 06:01S 29°46' E 031°20'4 8.7
2017-Apr-13 05:30S 29°44' E 031°24'4 8.5
2017-Apr-13 05:01S 29°43' E 031°29'4 8.4
2017-Apr-13 04:31S 29°42' E 031°34'4 8.4
2017-Apr-13 04:01S 29°40' E 031°38'4 8.4
2017-Apr-13 03:31S 29°39' E 031°43'4 8.5
2017-Apr-13 03:00S 29°38' E 031°47'4 8.7
2017-Apr-13 02:31S 29°37' E 031°52'4 7.6
2017-Apr-13 02:01S 29°37' E 031°57'4 7.8
2017-Apr-13 01:31S 29°36' E 032°01'4 7.8
2017-Apr-13 01:01S 29°35' E 032°05'4 8.1
2017-Apr-13 00:31S 29°34' E 032°10'4 8.0
2017-Apr-13 00:00S 29°32' E 032°14'4 8.0
2017-Apr-12 23:31S 29°31' E 032°18'4 7.9
2017-Apr-12 23:01S 29°30' E 032°23'4 8.2
2017-Apr-12 22:31S 29°28' E 032°27'4 8.2
2017-Apr-12 22:01S 29°27' E 032°32'4 8.2
2017-Apr-12 21:31S 29°26' E 032°36'4 8.1
2017-Apr-12 21:01S 29°25' E 032°41'4 8.2
2017-Apr-12 20:30S 29°23' E 032°45'4 8.0
2017-Apr-12 20:00S 29°22' E 032°50'4 8.1
2017-Apr-12 19:29S 29°21' E 032°54'4 9.0
2017-Apr-12 19:01S 29°20' E 032°59'6 9.4
2017-Apr-12 18:25S 29°18' E 033°05'11 9.5
2017-Apr-12 17:18S 29°14' E 033°16'17 8.7
2017-Apr-12 15:18S 29°09' E 033°35'  
Track history (hours):
 
Tides and Currents Weather Stations Pressure Air Temp Water Temp Dewpoint Dewpoint Depression Visibility Wind Speed Wind Dir Waves Ship Positions

MSC Susanna

Last reported at 2017-Apr-17 16:26 UTC. Time now 2017-Apr-29 01:56 UTC.
Position S 33°48' E 018°17'.
Warning: this ship's position is 11 days out of date.

Length 337 m; draft 11.4 m.

Type: Ship (hazmat cat A). MMSI: 371466000.

Date/timePositionNaut miles runAvg speedWind from/ knotsBaromVisibWave heightAir tempDewpointWater temp
2017-Apr-17 16:26S 33°48' E 018°17'716.3
2017-Apr-17 16:00S 33°51' E 018°24'4 8.3
2017-Apr-17 15:30S 33°55' E 018°27'0 0.3
2017-Apr-17 14:59S 33°55' E 018°27'0 0.0
2017-Apr-17 13:59S 33°55' E 018°27'0 0.0
2017-Apr-17 13:29S 33°55' E 018°27'0 0.0
2017-Apr-17 12:59S 33°55' E 018°27'0 0.0
2017-Apr-17 12:29S 33°55' E 018°27'0 0.0
2017-Apr-17 11:59S 33°55' E 018°27'0 0.0
2017-Apr-17 11:29S 33°55' E 018°27'0 0.0
2017-Apr-17 10:59S 33°55' E 018°27'0 0.0
2017-Apr-17 10:29S 33°55' E 018°27'0 0.0
2017-Apr-17 09:59S 33°55' E 018°27'0 0.0
2017-Apr-17 09:29S 33°55' E 018°27'0 0.0
2017-Apr-17 08:59S 33°55' E 018°27'0 0.0
2017-Apr-17 08:29S 33°55' E 018°27'0 0.0
2017-Apr-17 07:59S 33°55' E 018°27'0 0.0
2017-Apr-17 07:26S 33°55' E 018°27'0 0.0
2017-Apr-17 06:59S 33°55' E 018°27'0 0.0
2017-Apr-17 06:29S 33°55' E 018°27'0 0.0
2017-Apr-17 05:56S 33°55' E 018°27'0 0.0
2017-Apr-17 05:29S 33°55' E 018°27'0 0.0
2017-Apr-17 04:59S 33°55' E 018°27'0 0.0
2017-Apr-17 04:29S 33°55' E 018°27'0 0.1
2017-Apr-17 03:59S 33°55' E 018°27'1 2.1
2017-Apr-17 03:30S 33°54' E 018°26'3 5.5
2017-Apr-17 03:00S 33°52' E 018°23'1 2.9
2017-Apr-17 02:30S 33°52' E 018°22'2 3.7
2017-Apr-17 02:00S 33°54' E 018°20'3 6.6
2017-Apr-17 01:30S 33°56' E 018°18'1212.2
2017-Apr-17 00:29S 34°08' E 018°13'68515.2
2017-Apr-15 03:26S 30°15' E 030°54'614.3
2017-Apr-15 03:01S 30°10' E 030°58'713.9
2017-Apr-15 02:30S 30°04' E 031°01'611.8
2017-Apr-15 02:00S 29°58' E 031°04'5 9.9
2017-Apr-15 01:30S 29°54' E 031°06'3 6.3
2017-Apr-15 01:01S 29°52' E 031°03'2 3.4
2017-Apr-15 00:28S 29°53' E 031°01'0 0.0
2017-Apr-14 23:58S 29°53' E 031°01'0 0.0
2017-Apr-14 23:25S 29°53' E 031°01'0 0.0
2017-Apr-14 22:58S 29°53' E 031°01'0 0.0
2017-Apr-14 22:28S 29°53' E 031°01'0 0.0
2017-Apr-14 21:58S 29°53' E 031°01'0 0.0
2017-Apr-14 21:28S 29°53' E 031°01'0 0.0
2017-Apr-14 20:55S 29°53' E 031°01'0 0.0
2017-Apr-14 20:28S 29°53' E 031°01'0 0.0
2017-Apr-14 20:00S 29°53' E 031°01'0 0.0
2017-Apr-14 19:30S 29°53' E 031°01'0 0.0
2017-Apr-14 19:00S 29°53' E 031°01'0 0.0
2017-Apr-14 18:30S 29°53' E 031°01'0 0.0
2017-Apr-14 18:00S 29°53' E 031°01'0 0.0
2017-Apr-14 17:30S 29°53' E 031°01'0 0.0
2017-Apr-14 17:00S 29°53' E 031°01'0 0.0
2017-Apr-14 16:30S 29°53' E 031°01'0 0.0
2017-Apr-14 16:00S 29°53' E 031°01'0 0.0
2017-Apr-14 15:30S 29°53' E 031°01'0 0.0
2017-Apr-14 15:00S 29°53' E 031°01'0 0.0
2017-Apr-14 14:00S 29°53' E 031°01'0 0.0
2017-Apr-14 13:30S 29°53' E 031°01'0 0.0
2017-Apr-14 13:00S 29°53' E 031°01'0 0.0
2017-Apr-14 12:30S 29°53' E 031°01'0 0.0
2017-Apr-14 12:00S 29°53' E 031°01'0 0.0
2017-Apr-14 11:27S 29°53' E 031°01'0 0.0
2017-Apr-14 11:00S 29°53' E 031°01'0 0.0
2017-Apr-14 10:27S 29°53' E 031°01'0 0.0
2017-Apr-14 09:57S 29°53' E 031°01'0 0.0
2017-Apr-14 09:30S 29°53' E 031°01'0 0.0
2017-Apr-14 08:57S 29°53' E 031°01'0 0.0
2017-Apr-14 08:30S 29°53' E 031°01'0 0.0
2017-Apr-14 07:57S 29°53' E 031°01'0 0.0
2017-Apr-14 07:30S 29°53' E 031°01'0 0.0
2017-Apr-14 06:57S 29°53' E 031°01'0 0.0
2017-Apr-14 06:30S 29°53' E 031°01'0 0.0
2017-Apr-14 06:00S 29°53' E 031°01'0 0.0
2017-Apr-14 05:30S 29°53' E 031°01'0 0.0
2017-Apr-14 05:00S 29°53' E 031°01'0 0.0
2017-Apr-14 04:30S 29°53' E 031°01'0 0.0
2017-Apr-14 03:57S 29°53' E 031°01'0 0.0
2017-Apr-14 03:30S 29°53' E 031°01'0 0.0
2017-Apr-14 03:00S 29°53' E 031°01'0 0.0
2017-Apr-14 02:30S 29°53' E 031°01'0 0.0
2017-Apr-14 02:00S 29°53' E 031°01'0 0.0
2017-Apr-14 01:30S 29°53' E 031°01'0 0.0
2017-Apr-14 01:00S 29°53' E 031°01'0 0.0
2017-Apr-14 00:30S 29°53' E 031°01'0 0.0
2017-Apr-14 00:00S 29°53' E 031°01'0 0.0
2017-Apr-13 23:30S 29°53' E 031°01'0 0.0
2017-Apr-13 23:00S 29°53' E 031°01'0 0.0
2017-Apr-13 22:27S 29°53' E 031°01'0 0.0
2017-Apr-13 22:00S 29°53' E 031°01'0 0.0
2017-Apr-13 21:27S 29°53' E 031°01'0 0.0
2017-Apr-13 21:00S 29°53' E 031°01'0 0.0
2017-Apr-13 20:30S 29°53' E 031°01'0 0.0
2017-Apr-13 20:00S 29°53' E 031°01'0 0.0
2017-Apr-13 19:30S 29°53' E 031°01'0 0.0
2017-Apr-13 19:00S 29°53' E 031°01'0 0.0
2017-Apr-13 18:30S 29°53' E 031°01'0 0.0
2017-Apr-13 18:00S 29°53' E 031°01'0 0.0
2017-Apr-13 17:30S 29°53' E 031°01'0 0.0
2017-Apr-13 17:00S 29°53' E 031°01'0 0.0
2017-Apr-13 16:30S 29°53' E 031°01'0 0.0
2017-Apr-13 15:57S 29°53' E 031°01'0 0.0
2017-Apr-13 15:30S 29°53' E 031°01'0 0.0
2017-Apr-13 14:57S 29°53' E 031°01'0 0.0
2017-Apr-13 14:27S 29°53' E 031°01'0 0.0
2017-Apr-13 13:30S 29°53' E 031°01'0 0.1
2017-Apr-13 13:01S 29°53' E 031°01'1 1.4
2017-Apr-13 12:31S 29°52' E 031°02'4 8.2
2017-Apr-13 12:01S 29°50' E 031°06'2 4.3
2017-Apr-13 11:31S 29°49' E 031°08'3 5.1
2017-Apr-13 11:01S 29°50' E 031°11'4 8.4
2017-Apr-13 10:31S 29°51' E 031°16'1 1.4
2017-Apr-13 10:01S 29°50' E 031°16'0 0.1
2017-Apr-13 09:31S 29°50' E 031°16'0 0.3
2017-Apr-13 09:01S 29°50' E 031°16'0 0.2
2017-Apr-13 08:31S 29°50' E 031°17'0 0.2
2017-Apr-13 08:01S 29°50' E 031°17'0 0.5
2017-Apr-13 07:31S 29°50' E 031°17'0 0.7
2017-Apr-13 07:01S 29°50' E 031°17'2 3.1
2017-Apr-13 06:31S 29°48' E 031°17'3 6.5
2017-Apr-13 06:01S 29°46' E 031°20'4 8.7
2017-Apr-13 05:30S 29°44' E 031°24'4 8.5
2017-Apr-13 05:01S 29°43' E 031°29'4 8.4
2017-Apr-13 04:31S 29°42' E 031°34'4 8.4
2017-Apr-13 04:01S 29°40' E 031°38'4 8.4
2017-Apr-13 03:31S 29°39' E 031°43'4 8.5
2017-Apr-13 03:00S 29°38' E 031°47'4 8.7
2017-Apr-13 02:31S 29°37' E 031°52'4 7.6
2017-Apr-13 02:01S 29°37' E 031°57'4 7.8
2017-Apr-13 01:31S 29°36' E 032°01'4 7.8
2017-Apr-13 01:01S 29°35' E 032°05'4 8.1
2017-Apr-13 00:31S 29°34' E 032°10'4 8.0
2017-Apr-13 00:00S 29°32' E 032°14'4 8.0
2017-Apr-12 23:31S 29°31' E 032°18'4 7.9
2017-Apr-12 23:01S 29°30' E 032°23'4 8.2
2017-Apr-12 22:31S 29°28' E 032°27'4 8.2
2017-Apr-12 22:01S 29°27' E 032°32'4 8.2
2017-Apr-12 21:31S 29°26' E 032°36'4 8.1
2017-Apr-12 21:01S 29°25' E 032°41'4 8.2
2017-Apr-12 20:30S 29°23' E 032°45'4 8.0
2017-Apr-12 20:00S 29°22' E 032°50'4 8.1
2017-Apr-12 19:29S 29°21' E 032°54'4 9.0
2017-Apr-12 19:01S 29°20' E 032°59'6 9.4
2017-Apr-12 18:25S 29°18' E 033°05'11 9.5
2017-Apr-12 17:18S 29°14' E 033°16'17 8.7
2017-Apr-12 15:18S 29°09' E 033°35'  

Dump ship's entire track history